Time;durP1;ratioP1;P1;durP2;ratioP2;P2;SDS_P1;SDS_P2;PMS_P1;PMS_P2;Temp;Humidity;BMP_temperature;BMP_pressure;BME280_temperature;BME280_humidity;BME280_pressure;Samples;Min_cycle;Max_cycle;Signal;HPM_P1;HPM_P2
2022/10/23 00:00:17;;;;;;;;;;;;;;;13.32;100.00;98204.97;5054547;28;19925;-76
2022/10/23 00:02:44;;;;;;;;;;;;;;;13.28;100.00;98202.03;5086517;28;19948;-75
2022/10/23 00:05:10;;;;;;;;;;;;;;;13.27;100.00;98205.81;5056751;28;19924;-76
2022/10/23 00:07:37;;;;;;;;;;;;;;;13.28;100.00;98207.41;5073579;28;20023;-75
2022/10/23 00:10:03;;;;;;;;;;;;;;;13.56;100.00;98208.63;5071485;28;19980;-76
2022/10/23 00:12:30;;;;;;;;;;;;;;;13.44;100.00;98208.97;5053475;28;19925;-77
2022/10/23 00:15:11;;;;;;;;;;;;;;;13.33;100.00;98204.72;5055314;28;20572;-76
2022/10/23 00:17:38;;;;;;;;;;;;;;;13.34;100.00;98205.50;5074045;28;19951;-76
2022/10/23 00:20:05;;;;;;;;;;;;;;;13.14;100.00;98198.31;5055899;28;19924;-76
2022/10/23 00:22:31;;;;;;;;;;;;;;;13.20;100.00;98201.78;5054136;28;19927;-77
2022/10/23 00:24:58;;;;;;;;;;;;;;;13.10;100.00;98204.50;5054789;28;20016;-77
2022/10/23 00:27:25;;;;;;;;;;;;;;;13.08;100.00;98201.25;5058487;28;19931;-76
2022/10/23 00:29:52;;;;;;;;;;;;;;;12.95;100.00;98202.63;5075002;28;19925;-78
2022/10/23 00:32:20;;;;;;;;;;;;;;;12.90;100.00;98198.06;5054987;28;19935;-77
2022/10/23 00:34:46;;;;;;;;;;;;;;;12.71;100.00;98204.25;5069982;28;19925;-77
2022/10/23 00:37:12;;;;;;;;;;;;;;;12.62;100.00;98205.88;5073570;28;19932;-77
2022/10/23 00:39:39;;;;;;;;;;;;;;;12.56;100.00;98207.75;5057451;28;20611;-76
2022/10/23 00:42:05;;;;;;;;;;;;;;;12.60;100.00;98199.97;5071338;28;19920;-76
2022/10/23 00:44:51;;;;;;;;;;;;;;;12.54;100.00;98211.75;5050145;28;19932;-76
2022/10/23 00:47:17;;;;;;;;;;;;;;;12.49;100.00;98201.84;5047401;28;19993;-76
2022/10/23 00:49:45;;;;;;;;;;;;;;;12.55;100.00;98208.00;5053180;28;19984;-77
2022/10/23 00:52:12;;;;;;;;;;;;;;;12.63;100.00;98212.81;5046482;28;19989;-78
2022/10/23 00:54:41;;;;;;;;;;;;;;;12.61;100.00;98210.44;5055737;28;19925;-77
2022/10/23 00:57:11;;;;;;;;;;;;;;;12.64;100.00;98211.75;5056366;28;19963;-77
2022/10/23 00:59:38;;;;;;;;;;;;;;;12.59;100.00;98209.09;5072916;28;19971;-77
2022/10/23 01:02:05;;;;;;;;;;;;;;;12.54;100.00;98211.75;5053630;28;19996;-75
2022/10/23 01:04:32;;;;;;;;;;;;;;;12.68;100.00;98216.31;5051874;28;19933;-75
2022/10/23 01:07:04;;;;;;;;;;;;;;;12.76;100.00;98218.47;5052098;28;19993;-78
2022/10/23 01:09:33;;;;;;;;;;;;;;;13.04;100.00;98219.75;5053669;28;19928;-77
2022/10/23 01:12:04;;;;;;;;;;;;;;;13.20;100.00;98220.56;5072050;28;20556;-77
2022/10/23 01:14:33;;;;;;;;;;;;;;;13.16;100.00;98216.81;5057128;28;19968;-75
2022/10/23 01:17:03;;;;;;;;;;;;;;;13.14;100.00;98208.25;5070909;28;20012;-76
2022/10/23 01:19:37;;;;;;;;;;;;;;;13.03;100.00;98212.00;5052393;28;19925;-76
2022/10/23 01:22:10;;;;;;;;;;;;;;;12.89;100.00;98199.16;5054970;28;19932;-75
2022/10/23 01:24:45;;;;;;;;;;;;;;;12.85;100.00;98203.44;5050190;28;19948;-76
2022/10/23 01:27:23;;;;;;;;;;;;;;;12.73;100.00;98205.59;5040278;28;19929;-76
2022/10/23 01:29:58;;;;;;;;;;;;;;;12.73;100.00;98194.88;5049661;28;19961;-76
2022/10/23 01:32:27;;;;;;;;;;;;;;;12.63;100.00;98194.88;5053928;28;19947;-75
2022/10/23 01:34:57;;;;;;;;;;;;;;;12.64;100.00;98201.03;5077252;28;19976;-76
2022/10/23 01:37:27;;;;;;;;;;;;;;;12.59;100.00;98193.81;5056001;28;19984;-76
2022/10/23 01:39:56;;;;;;;;;;;;;;;12.65;100.00;98191.94;5059410;28;19947;-76
2022/10/23 01:42:29;;;;;;;;;;;;;;;12.77;100.00;98195.16;5058023;28;19972;-76
2022/10/23 01:44:59;;;;;;;;;;;;;;;12.64;100.00;98185.78;5057893;28;20050;-77
2022/10/23 01:47:30;;;;;;;;;;;;;;;12.68;100.00;98180.69;5075853;28;19967;-77
2022/10/23 01:49:58;;;;;;;;;;;;;;;12.66;100.00;98177.44;5059455;28;19932;-77
2022/10/23 01:52:25;;;;;;;;;;;;;;;12.59;100.00;98182.31;5057081;28;19925;-77
2022/10/23 01:54:53;;;;;;;;;;;;;;;12.70;100.00;98184.69;5058085;28;20274;-75
2022/10/23 01:57:21;;;;;;;;;;;;;;;12.67;100.00;98185.22;5075845;28;19935;-75
2022/10/23 01:59:50;;;;;;;;;;;;;;;12.79;100.00;98179.59;5060093;28;19928;-78
2022/10/23 02:02:18;;;;;;;;;;;;;;;12.64;100.00;98176.94;5055920;28;19956;-77
2022/10/23 02:04:47;;;;;;;;;;;;;;;12.47;100.00;98168.38;5056352;28;20413;-81
2022/10/23 02:07:13;;;;;;;;;;;;;;;12.44;100.00;98175.84;5049022;28;19928;-76
2022/10/23 02:09:40;;;;;;;;;;;;;;;12.31;100.00;98172.94;5055333;28;19963;-76
2022/10/23 02:12:07;;;;;;;;;;;;;;;12.33;100.00;98181.50;5057878;28;19940;-77
2022/10/23 02:14:39;;;;;;;;;;;;;;;12.21;100.00;98175.59;5075338;28;19929;-76
2022/10/23 02:17:10;;;;;;;;;;;;;;;12.22;100.00;98169.19;5071991;28;19925;-77
2022/10/23 02:19:42;;;;;;;;;;;;;;;12.27;100.00;98169.16;5055735;28;19961;-76
2022/10/23 02:22:10;;;;;;;;;;;;;;;12.11;100.00;98164.88;5057885;28;20047;-76
2022/10/23 02:24:39;;;;;;;;;;;;;;;12.14;100.00;98165.16;5055894;28;20004;-77
2022/10/23 02:27:10;;;;;;;;;;;;;;;12.16;100.00;98154.97;5057129;28;20377;-75
2022/10/23 02:29:38;;;;;;;;;;;;;;;12.18;100.00;98165.41;5074215;28;19935;-77
2022/10/23 02:32:06;;;;;;;;;;;;;;;12.31;100.00;98157.66;5056251;28;19925;-76
2022/10/23 02:34:35;;;;;;;;;;;;;;;12.32;100.00;98163.81;5055744;28;19993;-76
2022/10/23 02:37:01;;;;;;;;;;;;;;;12.22;100.00;98167.31;5056678;28;20181;-77
2022/10/23 02:39:28;;;;;;;;;;;;;;;12.20;100.00;98168.63;5059190;28;19980;-77
2022/10/23 02:41:59;;;;;;;;;;;;;;;12.23;100.00;98168.09;5071820;28;20156;-75
2022/10/23 02:44:28;;;;;;;;;;;;;;;12.26;100.00;98163.00;5055546;28;20344;-73
2022/10/23 02:47:00;;;;;;;;;;;;;;;12.19;100.00;98162.47;5056537;28;19925;-75
2022/10/23 02:49:31;;;;;;;;;;;;;;;12.17;100.00;98161.13;5074818;28;19924;-75
2022/10/23 02:52:03;;;;;;;;;;;;;;;12.15;100.00;98155.25;5056362;28;19925;-75
2022/10/23 02:54:36;;;;;;;;;;;;;;;12.23;100.00;98152.03;5046506;28;19976;-75
2022/10/23 02:57:04;;;;;;;;;;;;;;;12.21;100.00;98154.16;5069461;28;19946;-74
2022/10/23 02:59:35;;;;;;;;;;;;;;;12.11;100.00;98154.97;5071865;28;19948;-75
2022/10/23 03:02:03;;;;;;;;;;;;;;;12.02;100.00;98139.69;5055715;28;19946;-75
2022/10/23 03:04:31;;;;;;;;;;;;;;;12.10;100.00;98141.88;5072026;28;19948;-75
2022/10/23 03:06:58;;;;;;;;;;;;;;;12.17;100.00;98137.03;5056937;28;20020;-75
2022/10/23 03:09:26;;;;;;;;;;;;;;;12.07;100.00;98137.81;5058738;28;19924;-74
2022/10/23 03:11:52;;;;;;;;;;;;;;;12.19;100.00;98145.63;5058087;28;19947;-75
2022/10/23 03:14:19;;;;;;;;;;;;;;;12.28;100.00;98139.47;5070598;28;19967;-75
2022/10/23 03:16:45;;;;;;;;;;;;;;;12.17;100.00;98131.66;5054547;28;19963;-75
2022/10/23 03:19:12;;;;;;;;;;;;;;;12.10;100.00;98125.81;5047260;28;19929;-75
2022/10/23 03:21:38;;;;;;;;;;;;;;;12.25;100.00;98123.94;5055365;28;19925;-75
2022/10/23 03:24:04;;;;;;;;;;;;;;;12.14;100.00;98122.31;5055711;28;19925;-74
2022/10/23 03:26:32;;;;;;;;;;;;;;;12.12;100.00;98145.06;5055001;28;19929;-74
2022/10/23 03:28:59;;;;;;;;;;;;;;;12.14;100.00;98137.56;5056271;28;19929;-73
2022/10/23 03:31:25;;;;;;;;;;;;;;;12.15;100.00;98144.53;5058331;28;20532;-73
2022/10/23 03:33:51;;;;;;;;;;;;;;;12.13;100.00;98154.72;5057477;28;19979;-74
2022/10/23 03:36:18;;;;;;;;;;;;;;;12.00;100.00;98145.34;5054716;28;19926;-74
2022/10/23 03:38:44;;;;;;;;;;;;;;;11.99;100.00;98143.72;5053188;28;20039;-73
2022/10/23 03:41:10;;;;;;;;;;;;;;;12.00;100.00;98145.34;5057790;28;19960;-74
2022/10/23 03:43:38;;;;;;;;;;;;;;;12.06;100.00;98154.16;5056671;28;19925;-73
2022/10/23 03:46:08;;;;;;;;;;;;;;;11.95;100.00;98155.19;5048573;28;20442;-73
2022/10/23 03:48:36;;;;;;;;;;;;;;;12.02;100.00;98163.78;5057865;28;19925;-73
2022/10/23 03:51:03;;;;;;;;;;;;;;;11.91;100.00;98163.75;5070995;28;19925;-74
2022/10/23 03:53:29;;;;;;;;;;;;;;;11.89;100.00;98151.72;5053505;28;20313;-74
2022/10/23 03:55:58;;;;;;;;;;;;;;;11.81;100.00;98142.34;5056274;28;20222;-74
2022/10/23 03:58:25;;;;;;;;;;;;;;;11.90;100.00;98140.75;5054830;28;19996;-74
2022/10/23 04:00:53;;;;;;;;;;;;;;;11.89;100.00;98133.00;5070608;28;19929;-75
2022/10/23 04:03:21;;;;;;;;;;;;;;;11.86;100.00;98131.66;5057062;28;19925;-75
2022/10/23 04:05:48;;;;;;;;;;;;;;;11.90;100.00;98127.38;5072896;28;20074;-74
2022/10/23 04:08:14;;;;;;;;;;;;;;;11.94;100.00;98137.56;5054864;28;19948;-73
2022/10/23 04:10:40;;;;;;;;;;;;;;;12.09;100.00;98137.56;5054422;28;19952;-74
2022/10/23 04:13:26;;;;;;;;;;;;;;;11.94;100.00;98132.22;5056773;28;19925;-75
2022/10/23 04:15:54;;;;;;;;;;;;;;;12.11;100.00;98135.41;5055134;28;19925;-75
2022/10/23 04:18:20;;;;;;;;;;;;;;;12.01;100.00;98138.13;5052951;28;19931;-75
2022/10/23 04:20:47;;;;;;;;;;;;;;;12.01;100.00;98132.75;5053865;28;19964;-74
2022/10/23 04:23:14;;;;;;;;;;;;;;;11.98;100.00;98133.25;5057263;28;19925;-74
2022/10/23 04:25:40;;;;;;;;;;;;;;;11.90;100.00;98134.59;5057094;28;19967;-74
2022/10/23 04:28:06;;;;;;;;;;;;;;;11.92;100.00;98129.78;5054225;28;19993;-74
2022/10/23 04:30:33;;;;;;;;;;;;;;;11.88;100.00;98129.50;5049252;28;19979;-74
2022/10/23 04:33:00;;;;;;;;;;;;;;;11.87;100.00;98121.75;5054168;28;19936;-74
2022/10/23 04:35:27;;;;;;;;;;;;;;;11.80;100.00;98124.69;5054233;28;19974;-74
2022/10/23 04:37:53;;;;;;;;;;;;;;;11.94;100.00;98121.50;5055030;28;19924;-74
2022/10/23 04:40:20;;;;;;;;;;;;;;;12.17;100.00;98129.00;5053720;28;20264;-74
2022/10/23 04:42:46;;;;;;;;;;;;;;;12.20;100.00;98125.78;5053486;28;19926;-74
2022/10/23 04:45:12;;;;;;;;;;;;;;;12.13;100.00;98125.25;5045892;28;19929;-74
2022/10/23 04:47:39;;;;;;;;;;;;;;;11.98;100.00;98127.91;5054139;28;19925;-73
2022/10/23 04:50:07;;;;;;;;;;;;;;;11.95;100.00;98129.25;5054021;28;19952;-73
2022/10/23 04:52:33;;;;;;;;;;;;;;;11.97;100.00;98127.13;5052313;28;20021;-75
2022/10/23 04:55:00;;;;;;;;;;;;;;;12.04;100.00;98122.28;5052932;28;20109;-75
2022/10/23 04:57:26;;;;;;;;;;;;;;;11.98;100.00;98138.63;5057215;28;19980;-75
2022/10/23 04:59:52;;;;;;;;;;;;;;;11.82;100.00;98127.88;5056089;28;20637;-74
2022/10/23 05:02:19;;;;;;;;;;;;;;;11.80;100.00;98127.38;5049298;28;19925;-74
2022/10/23 05:04:45;;;;;;;;;;;;;;;11.81;100.00;98128.97;5066629;28;19988;-73
2022/10/23 05:07:12;;;;;;;;;;;;;;;12.07;100.00;98129.00;5042965;28;19985;-74
2022/10/23 05:09:39;;;;;;;;;;;;;;;12.35;100.00;98144.53;5059974;28;19972;-75
2022/10/23 05:12:05;;;;;;;;;;;;;;;12.30;100.00;98140.00;5058240;28;19924;-75
2022/10/23 05:14:32;;;;;;;;;;;;;;;12.24;100.00;98129.53;5056947;28;19994;-74
2022/10/23 05:17:00;;;;;;;;;;;;;;;12.27;100.00;98121.78;5057284;28;20062;-74
2022/10/23 05:19:28;;;;;;;;;;;;;;;12.34;100.00;98110.78;5060575;28;19925;-75
2022/10/23 05:21:55;;;;;;;;;;;;;;;12.24;100.00;98121.50;5053716;28;19936;-75
2022/10/23 05:24:23;;;;;;;;;;;;;;;12.30;100.00;98112.41;5057272;28;19925;-74
2022/10/23 05:26:50;;;;;;;;;;;;;;;12.19;100.00;98118.84;5060092;28;19963;-74
2022/10/23 05:29:17;;;;;;;;;;;;;;;12.33;100.00;98114.53;5057256;28;20521;-74
2022/10/23 05:31:43;;;;;;;;;;;;;;;12.26;100.00;98114.00;5053939;28;20000;-75
2022/10/23 05:34:11;;;;;;;;;;;;;;;12.13;100.00;98117.25;5058645;28;19924;-74
2022/10/23 05:36:37;;;;;;;;;;;;;;;12.21;100.00;98122.03;5075641;28;19960;-75
2022/10/23 05:39:04;;;;;;;;;;;;;;;12.21;100.00;98125.53;5073336;28;19925;-74
2022/10/23 05:41:31;;;;;;;;;;;;;;;12.17;100.00;98126.31;5055894;28;19925;-74
2022/10/23 05:43:58;;;;;;;;;;;;;;;12.20;100.00;98137.31;5057151;28;19960;-74
2022/10/23 05:46:24;;;;;;;;;;;;;;;12.32;100.00;98131.66;5060181;28;19925;-74
2022/10/23 05:48:51;;;;;;;;;;;;;;;12.03;100.00;98133.28;5075052;28;19932;-74
2022/10/23 05:51:20;;;;;;;;;;;;;;;11.86;100.00;98130.84;5056493;28;20778;-74
2022/10/23 05:53:47;;;;;;;;;;;;;;;11.80;100.00;98121.19;5058878;28;19925;-74
2022/10/23 05:56:13;;;;;;;;;;;;;;;11.70;100.00;98129.19;5056265;28;19992;-75
2022/10/23 05:58:41;;;;;;;;;;;;;;;11.78;100.00;98126.03;5056374;28;19992;-74
2022/10/23 06:01:08;;;;;;;;;;;;;;;11.74;100.00;98124.94;5059991;28;19935;-75
2022/10/23 06:03:34;;;;;;;;;;;;;;;11.76;100.00;98117.47;5075283;28;20009;-75
2022/10/23 06:06:01;;;;;;;;;;;;;;;11.75;100.00;98132.72;5058127;28;19920;-75
2022/10/23 06:08:27;;;;;;;;;;;;;;;11.71;100.00;98130.81;5056594;28;19992;-73
2022/10/23 06:10:53;;;;;;;;;;;;;;;11.64;100.00;98133.72;5060146;28;20445;-75
2022/10/23 06:13:20;;;;;;;;;;;;;;;11.67;100.00;98140.41;5058191;28;20013;-75
2022/10/23 06:15:47;;;;;;;;;;;;;;;11.65;100.00;98132.66;5075441;28;19947;-75
2022/10/23 06:18:14;;;;;;;;;;;;;;;11.53;100.00;98134.75;5051656;28;20003;-75
2022/10/23 06:20:40;;;;;;;;;;;;;;;11.47;100.00;98133.16;5056290;28;19960;-74
2022/10/23 06:23:07;;;;;;;;;;;;;;;11.41;100.00;98130.72;5057810;28;19936;-74
2022/10/23 06:25:34;;;;;;;;;;;;;;;11.38;100.00;98127.50;5055612;28;19967;-74
2022/10/23 06:28:00;;;;;;;;;;;;;;;11.37;100.00;98139.25;5058191;28;19948;-74
2022/10/23 06:30:26;;;;;;;;;;;;;;;11.47;100.00;98127.78;5060217;28;19924;-74
2022/10/23 06:32:54;;;;;;;;;;;;;;;11.48;100.00;98132.06;5059107;28;19941;-75
2022/10/23 06:35:20;;;;;;;;;;;;;;;11.43;100.00;98136.59;5056374;28;19925;-75
2022/10/23 06:37:47;;;;;;;;;;;;;;;11.46;100.00;98138.75;5056327;28;20415;-74
2022/10/23 06:40:13;;;;;;;;;;;;;;;11.57;100.00;98130.50;5059140;28;20024;-75
2022/10/23 06:42:39;;;;;;;;;;;;;;;11.49;100.00;98147.03;5058881;28;19996;-75
2022/10/23 06:45:06;;;;;;;;;;;;;;;11.44;100.00;98157.75;5056815;28;19980;-75
2022/10/23 06:47:32;;;;;;;;;;;;;;;11.37;100.00;98146.47;5056049;28;19929;-75
2022/10/23 06:50:00;;;;;;;;;;;;;;;11.39;100.00;98137.13;5056135;28;19960;-74
2022/10/23 06:52:30;;;;;;;;;;;;;;;11.43;100.00;98126.72;5051232;28;20052;-74
2022/10/23 06:54:56;;;;;;;;;;;;;;;11.39;100.00;98130.97;5051522;28;19953;-74
2022/10/23 06:57:23;;;;;;;;;;;;;;;11.42;100.00;98117.06;5059291;28;19959;-74
2022/10/23 06:59:49;;;;;;;;;;;;;;;11.47;100.00;98119.78;5074112;28;19959;-73
2022/10/23 07:02:16;;;;;;;;;;;;;;;11.45;100.00;98113.09;5054211;28;19935;-74
2022/10/23 07:04:42;;;;;;;;;;;;;;;11.48;100.00;98125.94;5056230;28;19953;-74
2022/10/23 07:07:10;;;;;;;;;;;;;;;11.47;100.00;98130.47;5058015;28;19992;-75
2022/10/23 07:09:36;;;;;;;;;;;;;;;11.53;100.00;98152.69;5051136;28;19992;-74
2022/10/23 07:12:02;;;;;;;;;;;;;;;11.59;100.00;98151.63;5054523;28;19979;-75
2022/10/23 07:14:31;;;;;;;;;;;;;;;11.54;100.00;98146.28;5051763;28;19988;-75
2022/10/23 07:16:57;;;;;;;;;;;;;;;11.81;100.00;98153.06;5056047;28;19952;-75
2022/10/23 07:19:23;;;;;;;;;;;;;;;11.56;100.00;98139.59;5057705;28;19935;-74
2022/10/23 07:21:50;;;;;;;;;;;;;;;11.54;100.00;98140.94;5054552;28;19984;-75
2022/10/23 07:24:19;;;;;;;;;;;;;;;11.50;100.00;98132.63;5077817;28;19925;-75
2022/10/23 07:26:45;;;;;;;;;;;;;;;11.54;100.00;98136.38;5067789;28;20019;-75
2022/10/23 07:29:12;;;;;;;;;;;;;;;11.44;100.00;98144.38;5046734;28;19959;-74
2022/10/23 07:31:38;;;;;;;;;;;;;;;11.46;100.00;98141.41;5054855;28;20358;-74
2022/10/23 07:34:05;;;;;;;;;;;;;;;11.42;100.00;98145.69;5055710;28;20039;-75
2022/10/23 07:36:31;;;;;;;;;;;;;;;11.28;100.00;98142.69;5057693;28;19932;-74
2022/10/23 07:38:58;;;;;;;;;;;;;;;11.38;100.00;98148.91;5071596;28;19924;-75
2022/10/23 07:41:26;;;;;;;;;;;;;;;11.36;100.00;98144.84;5054667;28;19967;-75
2022/10/23 07:43:52;;;;;;;;;;;;;;;11.27;100.00;98152.59;5054131;28;19991;-74
2022/10/23 07:46:18;;;;;;;;;;;;;;;11.33;100.00;98164.91;5058143;28;19925;-74
2022/10/23 07:48:45;;;;;;;;;;;;;;;11.35;100.00;98151.28;5058387;28;20391;-74
2022/10/23 07:51:12;;;;;;;;;;;;;;;11.39;100.00;98141.66;5055090;28;19925;-74
2022/10/23 07:53:38;;;;;;;;;;;;;;;11.32;100.00;98147.28;5053650;28;19931;-74
2022/10/23 07:56:10;;;;;;;;;;;;;;;11.19;100.00;98137.06;5071163;28;19967;-74
2022/10/23 07:58:38;;;;;;;;;;;;;;;11.33;100.00;98138.16;5054595;28;19994;-75
2022/10/23 08:01:23;;;;;;;;;;;;;;;11.37;100.00;98133.09;5055161;28;19925;-75
2022/10/23 08:03:49;;;;;;;;;;;;;;;11.32;100.00;98138.44;5057109;28;20020;-75
2022/10/23 08:06:15;;;;;;;;;;;;;;;11.34;100.00;98129.09;5055025;28;20041;-75
2022/10/23 08:08:42;;;;;;;;;;;;;;;11.33;100.00;98118.66;5055027;28;19992;-75
2022/10/23 08:11:10;;;;;;;;;;;;;;;11.34;100.00;98128.28;5056637;28;19960;-74
2022/10/23 08:13:36;;;;;;;;;;;;;;;11.39;100.00;98120.25;5073580;28;19924;-75
2022/10/23 08:16:04;;;;;;;;;;;;;;;11.41;100.00;98112.81;5056829;28;19992;-74
2022/10/23 08:18:31;;;;;;;;;;;;;;;11.38;100.00;98135.53;5058044;28;19932;-74
2022/10/23 08:21:00;;;;;;;;;;;;;;;11.41;100.00;98118.16;5058754;28;19936;-75
2022/10/23 08:23:27;;;;;;;;;;;;;;;11.37;100.00;98117.06;5057757;28;19960;-75
2022/10/23 08:25:57;;;;;;;;;;;;;;;11.34;100.00;98120.25;5056752;28;20010;-76
2022/10/23 08:28:23;;;;;;;;;;;;;;;11.42;100.00;98110.94;5053227;28;20224;-75
2022/10/23 08:30:50;;;;;;;;;;;;;;;11.49;100.00;98101.59;5054456;28;20067;-75
2022/10/23 08:33:17;;;;;;;;;;;;;;;11.45;100.00;98107.75;5057611;28;20202;-75
2022/10/23 08:35:44;;;;;;;;;;;;;;;11.40;100.00;98108.50;5057457;28;20470;-74
2022/10/23 08:38:11;;;;;;;;;;;;;;;11.35;100.00;98114.66;5054467;28;19926;-75
2022/10/23 08:40:37;;;;;;;;;;;;;;;11.51;100.00;98128.88;5057672;28;19932;-75
2022/10/23 08:43:06;;;;;;;;;;;;;;;11.49;100.00;98116.81;5060435;28;20394;-75
2022/10/23 08:45:35;;;;;;;;;;;;;;;11.59;100.00;98119.53;5076784;28;19925;-74
2022/10/23 08:48:04;;;;;;;;;;;;;;;11.50;100.00;98127.28;5074696;28;19996;-75
2022/10/23 08:50:34;;;;;;;;;;;;;;;11.51;100.00;98118.19;5058784;28;19926;-74
2022/10/23 08:53:04;;;;;;;;;;;;;;;11.64;100.00;98125.69;5057505;28;19926;-75
2022/10/23 08:55:33;;;;;;;;;;;;;;;11.59;100.00;98130.22;5077238;28;19931;-75
2022/10/23 08:58:01;;;;;;;;;;;;;;;11.52;100.00;98118.97;5060288;28;19972;-75
2022/10/23 09:00:28;;;;;;;;;;;;;;;11.53;100.00;98117.91;5056687;28;19968;-75
2022/10/23 09:02:55;;;;;;;;;;;;;;;11.61;100.00;98112.03;5057733;28;19933;-75
2022/10/23 09:05:24;;;;;;;;;;;;;;;11.63;100.00;98118.75;5076100;28;20463;-75
2022/10/23 09:08:09;;;;;;;;;;;;;;;11.61;100.00;98112.03;5075624;28;19947;-74
2022/10/23 09:10:45;;;;;;;;;;;;;;;11.65;100.00;98100.56;5065826;28;19971;-75
2022/10/23 09:13:21;;;;;;;;;;;;;;;11.84;100.00;98112.41;5060726;28;19964;-74
2022/10/23 09:15:51;;;;;;;;;;;;;;;11.80;100.00;98102.47;5060603;28;19967;-75
2022/10/23 09:18:17;;;;;;;;;;;;;;;11.89;100.00;98101.69;5057382;28;19953;-76
2022/10/23 09:20:44;;;;;;;;;;;;;;;11.87;100.00;98093.13;5055839;28;19929;-75
2022/10/23 09:23:14;;;;;;;;;;;;;;;11.92;100.00;98086.97;5058786;28;19980;-75
2022/10/23 09:25:43;;;;;;;;;;;;;;;11.95;100.00;98083.75;5076312;28;19925;-75
2022/10/23 09:28:14;;;;;;;;;;;;;;;11.98;100.00;98093.13;5056232;28;19932;-75
2022/10/23 09:30:42;;;;;;;;;;;;;;;11.99;100.00;98086.69;5056876;28;19972;-76
2022/10/23 09:33:15;;;;;;;;;;;;;;;11.93;100.00;98087.75;5060046;28;19925;-75
2022/10/23 09:35:52;;;;;;;;;;;;;;;11.97;100.00;98088.84;5060558;28;20271;-75
2022/10/23 09:38:25;;;;;;;;;;;;;;;12.01;100.00;98092.59;5035731;28;19971;-75
2022/10/23 09:40:53;;;;;;;;;;;;;;;12.03;100.00;98091.25;5054342;28;19936;-75
2022/10/23 09:43:22;;;;;;;;;;;;;;;12.04;100.00;98092.84;5059737;28;19926;-75
2022/10/23 09:45:56;;;;;;;;;;;;;;;12.19;100.00;98097.41;5057797;28;19925;-75
2022/10/23 09:48:22;;;;;;;;;;;;;;;12.28;100.00;98096.63;5060579;28;19980;-74
2022/10/23 09:50:49;;;;;;;;;;;;;;;12.31;100.00;98090.72;5056745;28;19995;-74
2022/10/23 09:53:18;;;;;;;;;;;;;;;12.36;100.00;98089.91;5054184;28;19924;-74
2022/10/23 09:55:50;;;;;;;;;;;;;;;12.40;100.00;98077.59;5059405;28;20167;-74
2022/10/23 09:58:29;;;;;;;;;;;;;;;12.33;100.00;98085.88;5036085;28;19997;-75
2022/10/23 10:00:56;;;;;;;;;;;;;;;12.32;100.00;98083.47;5069196;28;20393;-75
2022/10/23 10:03:23;;;;;;;;;;;;;;;12.34;100.00;98087.50;5067051;28;19951;-74
2022/10/23 10:05:56;;;;;;;;;;;;;;;12.26;100.00;98077.31;5058882;28;19925;-76
2022/10/23 10:08:27;;;;;;;;;;;;;;;12.37;100.00;98086.16;5072278;28;19947;-75
2022/10/23 10:10:57;;;;;;;;;;;;;;;12.39;100.00;98075.97;5055768;28;19971;-75
2022/10/23 10:13:35;;;;;;;;;;;;;;;12.40;100.00;98077.59;5059903;28;19978;-75
2022/10/23 10:16:06;;;;;;;;;;;;;;;12.45;100.00;98080.25;5058184;28;19935;-75
2022/10/23 10:18:34;;;;;;;;;;;;;;;12.49;100.00;98065.25;5056460;28;20341;-75
2022/10/23 10:21:05;;;;;;;;;;;;;;;12.57;100.00;98069.22;5057913;28;19925;-75
2022/10/23 10:23:36;;;;;;;;;;;;;;;12.58;100.00;98060.13;5059476;28;19992;-74
2022/10/23 10:26:07;;;;;;;;;;;;;;;12.69;100.00;98057.13;5073109;28;19924;-74
2022/10/23 10:28:58;;;;;;;;;;;;;;;12.78;100.00;98055.50;5051729;28;20024;-74
2022/10/23 10:31:33;;;;;;;;;;;;;;;12.74;100.00;98059.81;5044561;28;19952;-75
2022/10/23 10:34:07;;;;;;;;;;;;;;;12.71;100.00;98059.56;5057697;28;19952;-75
2022/10/23 10:36:46;;;;;;;;;;;;;;;12.76;100.00;98054.19;5059130;28;19947;-74
2022/10/23 10:39:19;;;;;;;;;;;;;;;12.75;100.00;98045.31;5047827;28;19925;-75
2022/10/23 10:41:52;;;;;;;;;;;;;;;12.79;100.00;98046.41;5055008;28;19960;-74
2022/10/23 10:44:33;;;;;;;;;;;;;;;12.92;100.00;98037.78;5048950;28;19926;-75
2022/10/23 10:47:05;;;;;;;;;;;;;;;12.95;100.00;98042.59;5057911;28;19926;-74
2022/10/23 10:49:35;;;;;;;;;;;;;;;13.05;100.00;98030.22;5058280;28;19996;-75
2022/10/23 10:52:06;;;;;;;;;;;;;;;13.16;100.00;98027.22;5057606;28;19924;-75
2022/10/23 10:54:56;;;;;;;;;;;;;;;13.13;100.00;98030.47;5052523;28;19992;-75
2022/10/23 10:57:28;;;;;;;;;;;;;;;13.25;100.00;98025.56;5058856;28;19931;-75
2022/10/23 10:59:57;;;;;;;;;;;;;;;13.16;100.00;98021.06;5073736;28;20015;-75
2022/10/23 11:02:28;;;;;;;;;;;;;;;13.24;100.00;98002.53;5054366;28;19992;-74
2022/10/23 11:04:57;;;;;;;;;;;;;;;13.29;100.00;97991.75;5071817;28;19929;-75
2022/10/23 11:07:25;;;;;;;;;;;;;;;13.30;100.00;97985.31;5074540;28;19925;-76
2022/10/23 11:09:52;;;;;;;;;;;;;;;13.32;100.00;98003.81;5058057;28;19925;-75
2022/10/23 11:12:21;;;;;;;;;;;;;;;13.38;100.00;97995.44;5055159;28;19925;-75
2022/10/23 11:14:49;;;;;;;;;;;;;;;13.34;100.00;97990.91;5054454;28;19932;-75
2022/10/23 11:17:19;;;;;;;;;;;;;;;13.43;100.00;98002.69;5058785;28;19963;-74
2022/10/23 11:19:49;;;;;;;;;;;;;;;13.42;100.00;97999.19;5058331;28;19960;-75
2022/10/23 11:22:20;;;;;;;;;;;;;;;13.45;100.00;97982.53;5062255;28;19968;-75
2022/10/23 11:25:04;;;;;;;;;;;;;;;13.57;100.00;97978.69;5107955;27;19955;-65
2022/10/23 11:27:37;;;;;;;;;;;;;;;13.57;100.00;97979.50;5075554;27;19927;-65
2022/10/23 11:30:11;;;;;;;;;;;;;;;13.61;100.00;97964.44;5073398;28;19992;-66
2022/10/23 11:32:48;;;;;;;;;;;;;;;13.69;100.00;97973.75;5071897;28;19925;-66
2022/10/23 11:35:32;;;;;;;;;;;;;;;13.71;100.00;97974.28;5065154;28;19956;-65
2022/10/23 11:38:00;;;;;;;;;;;;;;;13.77;100.00;97976.63;5072067;27;19925;-66
2022/10/23 11:40:28;;;;;;;;;;;;;;;13.90;100.00;97969.81;5076135;27;19956;-65
2022/10/23 11:42:55;;;;;;;;;;;;;;;13.88;100.00;97980.03;5078820;27;20169;-65
2022/10/23 11:45:29;;;;;;;;;;;;;;;13.89;100.00;97971.72;5079420;27;19980;-65
2022/10/23 11:47:59;;;;;;;;;;;;;;;13.97;100.00;97962.22;5080047;28;19940;-66
2022/10/23 11:50:27;;;;;;;;;;;;;;;14.00;100.00;97964.34;5083968;27;19943;-64
2022/10/23 11:52:58;;;;;;;;;;;;;;;13.88;100.00;97955.88;5070688;27;20020;-66
2022/10/23 11:55:26;;;;;;;;;;;;;;;14.05;100.00;97945.47;5082376;27;19919;-65
2022/10/23 11:58:16;;;;;;;;;;;;;;;14.13;100.00;97939.50;5079330;27;19971;-65
2022/10/23 12:00:52;;;;;;;;;;;;;;;14.24;100.00;97911.44;5073443;28;19936;-66
2022/10/23 12:03:20;;;;;;;;;;;;;;;14.40;100.00;97909.41;5064355;28;19925;-66
2022/10/23 12:05:47;;;;;;;;;;;;;;;14.34;100.00;97915.94;5070495;27;19929;-66
2022/10/23 12:08:20;;;;;;;;;;;;;;;14.43;100.00;97900.78;5063429;28;19988;-66
2022/10/23 12:10:49;;;;;;;;;;;;;;;14.51;100.00;97903.63;5070451;28;19984;-67
2022/10/23 12:13:28;;;;;;;;;;;;;;;14.57;100.00;97893.63;5063747;28;19974;-66
2022/10/23 12:15:56;;;;;;;;;;;;;;;14.61;100.00;97885.78;5072493;28;19929;-65
2022/10/23 12:18:22;;;;;;;;;;;;;;;14.65;100.00;97876.84;5075076;27;19992;-66
2022/10/23 12:20:51;;;;;;;;;;;;;;;14.69;100.00;97877.88;5074640;27;19929;-65
2022/10/23 12:23:26;;;;;;;;;;;;;;;14.73;100.00;97878.88;5068921;28;20096;-64
2022/10/23 12:26:00;;;;;;;;;;;;;;;14.81;100.00;97866.69;5074136;28;19925;-65
2022/10/23 12:28:31;;;;;;;;;;;;;;;15.01;100.00;97869.84;5071350;28;19963;-65
2022/10/23 12:31:05;;;;;;;;;;;;;;;15.02;100.00;97863.41;5072488;28;19932;-65
2022/10/23 12:33:34;;;;;;;;;;;;;;;15.11;100.00;97860.84;5074317;28;19931;-66
2022/10/23 12:36:12;;;;;;;;;;;;;;;15.16;100.00;97851.91;5060560;28;19956;-66
2022/10/23 12:38:43;;;;;;;;;;;;;;;15.18;100.00;97860.47;5057561;28;19928;-65
2022/10/23 12:41:12;;;;;;;;;;;;;;;15.29;100.00;97861.91;5060643;28;19925;-65
2022/10/23 12:43:40;;;;;;;;;;;;;;;15.45;100.00;97871.31;5060828;28;19975;-66